CheckWX is a tool to help pilots better visualize weather data.  It is not intended as a substitute for an official pre-flight weather briefing.

12:53:33 UTC

EKCH METAR
Copenhagen Kastrup Airport
Copenhagen, Denmark
Current

34 mins ago

EKCH 221220Z AUTO 14013KT 9999NDV FEW028/// 02/M05 Q1043 NOSIG
Observed
Feb-22 @ 12:20 UTC
Wind
  • 140° at 13 KTS
Visibility
Cloud Levels
  • Few at 2,800' AGL
Temperature
C / 36°F
Dewpoint
-5°C / 23°F
Humidity
60%
Altimeter
30.8" Hg
Pressure
1042.91 hPa
Previous

1 hour ago

EKCH 221150Z AUTO 12009KT 9999NDV FEW031/// 02/M05 Q1043 NOSIG
Observed
Feb-22 @ 11:50 UTC
Wind
  • 120° at 9 KTS
Visibility
Cloud Levels
  • Few at 3,100' AGL
Temperature
C / 36°F
Dewpoint
-5°C / 23°F
Humidity
60%
Altimeter
30.8" Hg
Pressure
1042.91 hPa
Previous

2 hours ago

EKCH 221120Z AUTO 13010KT 9999NDV NCD 02/M05 Q1043 NOSIG
Observed
Feb-22 @ 11:20 UTC
Wind
  • 130° at 10 KTS
Visibility
Cloud Levels
  • Clear skies
Temperature
C / 36°F
Dewpoint
-5°C / 23°F
Humidity
60%
Altimeter
30.8" Hg
Pressure
1042.91 hPa